createdAt,value
2022-10-15T00:02:22.548Z,46.10
2022-10-15T00:04:48.990Z,46.07
2022-10-15T00:07:16.766Z,46.22
2022-10-15T00:09:43.271Z,46.28
2022-10-15T00:12:10.092Z,46.46
2022-10-15T00:14:36.616Z,46.26
2022-10-15T00:17:03.097Z,46.11
2022-10-15T00:19:30.197Z,46.49
2022-10-15T00:21:56.714Z,46.13
2022-10-15T00:24:23.218Z,46.25
2022-10-15T00:26:49.950Z,46.19
2022-10-15T00:29:16.388Z,46.20
2022-10-15T00:31:42.871Z,46.44
2022-10-15T00:34:09.369Z,46.47
2022-10-15T00:36:36.147Z,46.29
2022-10-15T00:39:04.328Z,46.34
2022-10-15T00:41:36.599Z,46.03
2022-10-15T00:44:25.796Z,45.81
2022-10-15T00:47:04.678Z,46.04
2022-10-15T00:49:32.769Z,45.82
2022-10-15T00:52:03.367Z,45.80
2022-10-15T00:54:32.662Z,46.20
2022-10-15T00:56:59.134Z,46.11
2022-10-15T00:59:26.012Z,46.03
2022-10-15T01:01:52.827Z,46.12
2022-10-15T01:04:19.274Z,46.04
2022-10-15T01:06:46.055Z,46.00
2022-10-15T01:09:12.782Z,46.20
2022-10-15T01:11:42.492Z,46.02
2022-10-15T01:14:39.768Z,45.77
2022-10-15T01:17:31.396Z,45.71
2022-10-15T01:20:40.391Z,45.68
2022-10-15T01:23:15.935Z,45.33
2022-10-15T01:26:07.764Z,45.44
2022-10-15T01:28:34.172Z,45.50
2022-10-15T01:31:06.191Z,45.17
2022-10-15T01:33:37.019Z,45.39
2022-10-15T01:36:13.410Z,45.39
2022-10-15T01:39:13.872Z,45.35
2022-10-15T01:41:44.540Z,45.52
2022-10-15T01:44:18.402Z,45.75
2022-10-15T01:47:11.508Z,45.49
2022-10-15T01:49:40.984Z,45.75
2022-10-15T01:52:09.891Z,45.77
2022-10-15T01:54:36.343Z,45.77
2022-10-15T01:57:02.930Z,45.65
2022-10-15T01:59:31.227Z,45.71
2022-10-15T02:01:58.512Z,45.59
2022-10-15T02:04:28.198Z,45.65
2022-10-15T02:07:11.644Z,45.92
2022-10-15T02:10:07.638Z,45.72
2022-10-15T02:13:11.635Z,45.93
2022-10-15T02:16:05.215Z,45.89
2022-10-15T02:18:40.315Z,45.60
2022-10-15T02:21:16.348Z,45.72
2022-10-15T02:24:06.561Z,45.83
2022-10-15T02:26:33.019Z,45.76
2022-10-15T02:29:01.867Z,45.96
2022-10-15T02:31:29.901Z,45.87
2022-10-15T02:33:59.255Z,45.79
2022-10-15T02:36:25.722Z,46.07
2022-10-15T02:38:52.349Z,45.69
2022-10-15T02:41:18.802Z,45.85
2022-10-15T02:43:45.424Z,45.66
2022-10-15T02:46:11.887Z,45.61
2022-10-15T02:48:38.373Z,45.55
2022-10-15T02:51:04.941Z,45.37
2022-10-15T02:53:31.403Z,45.37
2022-10-15T02:55:57.861Z,45.41
2022-10-15T02:58:24.752Z,45.68
2022-10-15T03:00:52.527Z,45.43
2022-10-15T03:03:19.002Z,45.74
2022-10-15T03:05:45.972Z,45.29
2022-10-15T03:08:12.427Z,45.45
2022-10-15T03:10:38.871Z,45.54
2022-10-15T03:13:05.606Z,45.42
2022-10-15T03:15:32.166Z,45.55
2022-10-15T03:17:58.624Z,45.50
2022-10-15T03:20:25.130Z,45.77
2022-10-15T03:22:51.577Z,45.69
2022-10-15T03:25:18.022Z,45.55
2022-10-15T03:27:44.488Z,45.54
2022-10-15T03:30:11.165Z,45.26
2022-10-15T03:32:37.683Z,45.18
2022-10-15T03:35:04.388Z,45.17
2022-10-15T03:37:30.843Z,45.04
2022-10-15T03:39:57.690Z,45.15
2022-10-15T03:42:26.486Z,44.73
2022-10-15T03:49:45.634Z,45.10
2022-10-15T03:52:12.166Z,45.08
2022-10-15T03:54:38.627Z,44.96
2022-10-15T03:57:05.138Z,44.92
2022-10-15T03:59:31.615Z,45.21
2022-10-15T04:01:58.514Z,45.07
2022-10-15T04:04:25.346Z,45.26
2022-10-15T04:06:51.813Z,45.34
2022-10-15T04:09:18.281Z,45.11
2022-10-15T04:11:44.731Z,45.14
2022-10-15T04:14:11.260Z,45.30
2022-10-15T04:16:37.811Z,45.15
2022-10-15T04:19:07.328Z,45.21
2022-10-15T04:21:36.703Z,45.54
2022-10-15T04:24:03.255Z,45.20
2022-10-15T04:26:29.777Z,45.31
2022-10-15T04:28:56.307Z,45.25
2022-10-15T04:31:22.872Z,45.67
2022-10-15T04:33:49.648Z,45.61
2022-10-15T04:38:47.812Z,45.19
2022-10-15T04:41:14.372Z,45.39
2022-10-15T04:43:40.899Z,45.24
2022-10-15T04:46:07.574Z,45.44
2022-10-15T04:48:37.639Z,45.62
2022-10-15T04:51:08.375Z,45.70
2022-10-15T04:53:34.863Z,45.47
2022-10-15T04:56:03.413Z,45.51
2022-10-15T04:58:31.386Z,45.48
2022-10-15T05:01:08.955Z,45.21
2022-10-15T05:03:38.715Z,45.15
2022-10-15T05:06:15.118Z,45.25
2022-10-15T05:08:44.583Z,45.09
2022-10-15T05:11:13.536Z,45.02
2022-10-15T05:13:40.017Z,45.06
2022-10-15T05:16:13.570Z,45.06
2022-10-15T05:18:40.757Z,44.97
2022-10-15T05:21:07.703Z,45.35
2022-10-15T05:23:34.263Z,45.13
2022-10-15T05:26:01.533Z,45.11
2022-10-15T05:28:28.056Z,45.33
2022-10-15T05:30:54.552Z,45.55
2022-10-15T05:33:21.075Z,45.29
2022-10-15T05:35:47.759Z,45.41
2022-10-15T05:38:15.291Z,45.45
2022-10-15T05:40:41.742Z,45.60
2022-10-15T05:43:08.224Z,45.56
2022-10-15T05:45:35.031Z,45.57
2022-10-15T05:48:01.511Z,45.48
2022-10-15T05:50:27.955Z,45.06
2022-10-15T05:52:54.521Z,45.06
2022-10-15T05:55:22.194Z,44.84
2022-10-15T05:57:48.687Z,44.76
2022-10-15T06:00:15.722Z,44.98
2022-10-15T06:02:42.278Z,44.87
2022-10-15T06:05:09.013Z,44.71
2022-10-15T06:07:35.511Z,44.93
2022-10-15T06:14:56.991Z,44.69
2022-10-15T06:22:16.483Z,44.68
2022-10-15T06:27:10.066Z,44.76
2022-10-15T06:32:04.225Z,44.69
2022-10-15T06:34:30.819Z,44.82
2022-10-15T06:39:24.886Z,44.87
2022-10-15T06:41:51.346Z,44.93
2022-10-15T06:44:17.817Z,45.02
2022-10-15T06:49:10.933Z,45.00
2022-10-15T06:51:38.154Z,44.35
2022-10-15T06:54:04.846Z,44.28
2022-10-15T06:56:31.366Z,44.04
2022-10-15T06:58:57.815Z,44.02
2022-10-15T07:01:24.680Z,44.26
2022-10-15T07:03:51.473Z,44.66
2022-10-15T07:06:18.040Z,45.02
2022-10-15T07:08:45.304Z,44.50
2022-10-15T07:11:11.828Z,44.86
2022-10-15T07:13:38.502Z,45.26
2022-10-15T07:16:06.336Z,45.40
2022-10-15T07:18:33.174Z,45.74
2022-10-15T07:20:59.766Z,46.11
2022-10-15T07:23:27.894Z,46.17
2022-10-15T07:25:57.020Z,46.09
2022-10-15T07:28:23.598Z,46.12
2022-10-15T07:30:50.117Z,46.06
2022-10-15T07:33:17.690Z,46.06
2022-10-15T07:35:44.157Z,46.58
2022-10-15T07:38:10.802Z,46.40
2022-10-15T07:40:37.417Z,46.10
2022-10-15T07:43:03.931Z,46.54
2022-10-15T07:45:30.397Z,46.37
2022-10-15T07:47:56.948Z,46.77
2022-10-15T07:50:23.406Z,46.72
2022-10-15T07:52:49.896Z,47.06
2022-10-15T07:55:16.720Z,47.18
2022-10-15T07:57:43.196Z,47.05
2022-10-15T08:00:10.252Z,46.76
2022-10-15T08:02:36.724Z,46.68
2022-10-15T08:05:03.429Z,46.89
2022-10-15T08:07:29.870Z,46.82
2022-10-15T08:09:56.351Z,46.57
2022-10-15T08:12:22.980Z,46.91
2022-10-15T08:14:49.592Z,46.62
2022-10-15T08:17:16.072Z,46.60
2022-10-15T08:19:42.581Z,46.53
2022-10-15T08:22:09.065Z,46.49
2022-10-15T08:24:35.535Z,46.69
2022-10-15T08:27:01.974Z,46.79
2022-10-15T08:29:28.425Z,46.55
2022-10-15T08:31:54.871Z,46.78
2022-10-15T08:34:21.366Z,46.73
2022-10-15T08:36:47.809Z,46.82
2022-10-15T08:39:14.904Z,46.59
2022-10-15T08:41:46.642Z,46.69
2022-10-15T08:44:19.797Z,46.16
2022-10-15T08:46:47.315Z,46.18
2022-10-15T08:49:26.527Z,45.99
2022-10-15T08:51:55.236Z,45.95
2022-10-15T08:54:21.712Z,45.83
2022-10-15T08:56:50.871Z,45.77
2022-10-15T08:59:21.054Z,45.72
2022-10-15T09:01:51.819Z,45.39
2022-10-15T09:04:38.670Z,45.32
2022-10-15T09:07:18.305Z,45.42
2022-10-15T09:09:54.198Z,44.97
2022-10-15T09:12:45.283Z,44.88
2022-10-15T09:15:17.064Z,45.01
2022-10-15T09:17:43.817Z,44.93
2022-10-15T09:20:25.159Z,44.78
2022-10-15T09:22:51.957Z,44.87
2022-10-15T09:25:20.296Z,44.65
2022-10-15T09:27:49.349Z,44.28
2022-10-15T09:30:39.414Z,44.22
2022-10-15T09:33:13.509Z,44.62
2022-10-15T09:36:08.333Z,44.41
2022-10-15T09:38:37.613Z,43.98
2022-10-15T09:41:16.507Z,44.21
2022-10-15T09:43:45.163Z,43.77
2022-10-15T09:46:11.941Z,43.75
2022-10-15T09:48:51.013Z,43.57
2022-10-15T09:51:41.476Z,43.73
2022-10-15T09:54:20.279Z,43.49
2022-10-15T09:56:48.275Z,43.55
2022-10-15T09:59:18.673Z,43.65
2022-10-15T10:01:57.617Z,43.63
2022-10-15T10:04:44.571Z,43.77
2022-10-15T10:07:27.806Z,43.82
2022-10-15T10:09:55.843Z,44.02
2022-10-15T10:12:27.493Z,44.21
2022-10-15T10:15:03.061Z,44.20
2022-10-15T10:17:29.764Z,44.20
2022-10-15T10:20:09.022Z,44.01
2022-10-15T10:22:52.620Z,44.20
2022-10-15T10:25:38.273Z,44.28
2022-10-15T10:28:25.343Z,44.07
2022-10-15T10:30:55.732Z,44.16
2022-10-15T10:33:28.994Z,43.96
2022-10-15T10:35:57.030Z,44.29
2022-10-15T10:38:24.176Z,43.86
2022-10-15T10:41:07.618Z,43.91
2022-10-15T10:43:39.565Z,44.02
2022-10-15T10:46:15.391Z,44.19
2022-10-15T10:48:49.022Z,43.92
2022-10-15T10:51:21.027Z,43.79
2022-10-15T10:54:00.630Z,43.58
2022-10-15T10:56:31.455Z,44.06
2022-10-15T10:59:16.860Z,43.91
2022-10-15T11:01:43.343Z,44.42
2022-10-15T11:04:17.032Z,44.71
2022-10-15T11:07:00.617Z,44.61
2022-10-15T11:09:59.539Z,44.80
2022-10-15T11:12:44.668Z,44.81
2022-10-15T11:15:19.050Z,45.04
2022-10-15T11:17:48.543Z,44.82
2022-10-15T11:20:40.039Z,44.76
2022-10-15T11:23:33.489Z,45.05
2022-10-15T11:26:02.292Z,44.90
2022-10-15T11:29:06.331Z,44.94
2022-10-15T11:31:49.274Z,44.79
2022-10-15T11:34:43.449Z,44.81
2022-10-15T11:37:29.664Z,45.24
2022-10-15T11:40:32.429Z,45.07
2022-10-15T11:42:59.983Z,45.29
2022-10-15T11:45:39.428Z,45.25
2022-10-15T11:48:28.965Z,45.58
2022-10-15T11:51:33.161Z,45.58
2022-10-15T11:54:02.258Z,45.45
2022-10-15T11:56:34.910Z,45.62
2022-10-15T11:59:27.793Z,45.62
2022-10-15T12:02:14.075Z,45.77
2022-10-15T12:04:51.819Z,45.42
2022-10-15T12:07:29.311Z,45.37
2022-10-15T12:09:57.459Z,45.24
2022-10-15T12:13:01.958Z,45.20
2022-10-15T12:15:39.449Z,45.13
2022-10-15T12:18:21.268Z,45.56
2022-10-15T12:20:49.840Z,45.38
2022-10-15T12:23:39.615Z,45.63
2022-10-15T12:26:24.482Z,45.52
2022-10-15T12:28:52.571Z,45.64
2022-10-15T12:31:20.719Z,45.26
2022-10-15T12:33:51.070Z,45.33
2022-10-15T12:36:30.577Z,45.77
2022-10-15T12:39:27.827Z,45.41
2022-10-15T12:42:02.719Z,45.64
2022-10-15T12:44:32.752Z,45.80
2022-10-15T12:46:59.371Z,45.69
2022-10-15T12:49:32.355Z,45.65
2022-10-15T12:51:59.672Z,45.46
2022-10-15T12:54:39.222Z,45.57
2022-10-15T12:57:30.611Z,45.53
2022-10-15T13:00:00.611Z,45.63
2022-10-15T13:05:28.710Z,45.50
2022-10-15T13:07:56.019Z,45.73
2022-10-15T13:10:37.342Z,45.60
2022-10-15T13:13:04.879Z,45.52
2022-10-15T13:15:31.410Z,45.75
2022-10-15T13:18:06.438Z,45.90
2022-10-15T13:20:37.226Z,45.52
2022-10-15T13:23:30.182Z,45.54
2022-10-15T13:26:12.542Z,45.59
2022-10-15T13:28:41.885Z,45.97
2022-10-15T13:31:27.667Z,45.73
2022-10-15T13:34:20.454Z,45.55
2022-10-15T13:36:46.938Z,45.94
2022-10-15T13:39:38.703Z,45.88
2022-10-15T13:42:14.106Z,45.62
2022-10-15T13:44:41.047Z,45.81
2022-10-15T13:47:26.493Z,45.70
2022-10-15T13:50:22.192Z,45.70
2022-10-15T13:53:09.164Z,45.49
2022-10-15T13:55:40.003Z,45.83
2022-10-15T13:58:17.485Z,45.76
2022-10-15T14:00:48.984Z,45.97
2022-10-15T14:03:18.492Z,45.74
2022-10-15T14:05:45.913Z,45.70
2022-10-15T14:08:24.057Z,45.79
2022-10-15T14:10:52.332Z,45.70
2022-10-15T14:13:18.857Z,45.87
2022-10-15T14:16:14.565Z,45.79
2022-10-15T14:18:48.132Z,45.80
2022-10-15T14:21:20.168Z,45.66
2022-10-15T14:23:47.095Z,45.59
2022-10-15T14:26:13.884Z,46.03
2022-10-15T14:28:40.445Z,45.70
2022-10-15T14:31:07.094Z,45.66
2022-10-15T14:33:36.509Z,45.80
2022-10-15T14:36:03.950Z,45.56
2022-10-15T14:38:30.412Z,45.82
2022-10-15T14:41:07.361Z,45.61
2022-10-15T14:43:37.340Z,45.71
2022-10-15T14:46:05.123Z,46.07
2022-10-15T14:48:36.321Z,46.06
2022-10-15T14:51:07.459Z,45.79
2022-10-15T14:53:36.920Z,46.08
2022-10-15T14:56:09.872Z,45.79
2022-10-15T14:58:36.327Z,46.06
2022-10-15T15:01:04.093Z,46.34
2022-10-15T15:03:41.640Z,46.00
2022-10-15T15:06:08.389Z,46.17
2022-10-15T15:08:34.839Z,46.36
2022-10-15T15:11:03.076Z,46.44
2022-10-15T15:13:30.744Z,46.34
2022-10-15T15:15:57.241Z,46.52
2022-10-15T15:18:23.807Z,46.62
2022-10-15T15:20:50.533Z,46.54
2022-10-15T15:23:21.547Z,46.57
2022-10-15T15:25:48.053Z,46.81
2022-10-15T15:28:16.555Z,46.71
2022-10-15T15:30:44.001Z,47.03
2022-10-15T15:33:11.813Z,47.07
2022-10-15T15:35:50.684Z,46.95
2022-10-15T15:38:21.793Z,47.31
2022-10-15T15:40:48.449Z,47.69
2022-10-15T15:43:16.402Z,47.61
2022-10-15T15:45:42.934Z,47.68
2022-10-15T15:48:09.483Z,47.66
2022-10-15T15:50:36.090Z,47.89
2022-10-15T15:53:02.816Z,47.68
2022-10-15T15:55:29.527Z,47.65
2022-10-15T15:57:55.986Z,47.55
2022-10-15T16:00:22.459Z,47.73
2022-10-15T16:05:16.003Z,47.21
2022-10-15T16:07:43.359Z,47.97
2022-10-15T16:10:11.942Z,48.04
2022-10-15T16:12:39.402Z,48.12
2022-10-15T16:15:07.925Z,48.67
2022-10-15T16:17:36.959Z,48.84
2022-10-15T16:20:04.511Z,48.50
2022-10-15T16:22:31.002Z,49.27
2022-10-15T16:24:57.496Z,49.72
2022-10-15T16:27:24.382Z,49.63
2022-10-15T16:29:51.573Z,49.30
2022-10-15T16:32:18.825Z,49.37
2022-10-15T16:34:45.618Z,49.42
2022-10-15T16:37:12.156Z,49.58
2022-10-15T16:39:38.697Z,49.94
2022-10-15T16:42:05.607Z,49.44
2022-10-15T16:44:32.188Z,49.24
2022-10-15T16:46:58.709Z,49.26
2022-10-15T16:49:25.244Z,49.16
2022-10-15T16:51:51.763Z,49.07
2022-10-15T16:54:18.292Z,48.99
2022-10-15T16:56:49.038Z,49.00
2022-10-15T16:59:18.610Z,48.81
2022-10-15T17:01:45.112Z,48.87
2022-10-15T17:04:11.675Z,49.47
2022-10-15T17:06:38.119Z,49.15
2022-10-15T17:09:04.684Z,49.24
2022-10-15T17:11:33.193Z,48.90
2022-10-15T17:14:00.878Z,49.16
2022-10-15T17:16:29.064Z,49.09
2022-10-15T17:18:56.196Z,48.83
2022-10-15T17:21:24.349Z,49.16
2022-10-15T17:23:51.644Z,48.97
2022-10-15T17:26:20.086Z,48.81
2022-10-15T17:28:47.264Z,49.18
2022-10-15T17:31:15.791Z,49.29
2022-10-15T17:33:42.692Z,49.35
2022-10-15T17:36:19.490Z,49.40
2022-10-15T17:38:45.979Z,49.26
2022-10-15T17:41:14.020Z,49.26
2022-10-15T17:43:40.523Z,49.44
2022-10-15T17:46:10.192Z,50.00
2022-10-15T17:48:38.136Z,49.99
2022-10-15T17:51:05.713Z,50.45
2022-10-15T17:53:32.204Z,50.07
2022-10-15T17:55:58.778Z,50.18
2022-10-15T17:58:25.362Z,50.31
2022-10-15T18:00:56.159Z,49.96
2022-10-15T18:03:23.030Z,49.82
2022-10-15T18:05:49.930Z,49.64
2022-10-15T18:08:16.784Z,50.24
2022-10-15T18:10:45.165Z,50.50
2022-10-15T18:13:12.669Z,50.63
2022-10-15T18:15:47.729Z,50.05
2022-10-15T18:18:14.459Z,49.28
2022-10-15T18:20:41.696Z,48.68
2022-10-15T18:23:08.156Z,47.85
2022-10-15T18:25:34.710Z,48.34
2022-10-15T18:28:01.516Z,48.03
2022-10-15T18:30:28.171Z,48.18
2022-10-15T18:32:57.288Z,48.38
2022-10-15T18:35:25.334Z,48.12
2022-10-15T18:37:51.792Z,48.37
2022-10-15T18:40:18.271Z,48.67
2022-10-15T18:42:47.668Z,48.63
2022-10-15T18:45:14.504Z,48.34
2022-10-15T18:47:41.408Z,48.09
2022-10-15T18:50:08.333Z,48.44
2022-10-15T18:52:39.880Z,48.35
2022-10-15T18:55:07.410Z,48.65
2022-10-15T18:57:34.762Z,47.93
2022-10-15T19:00:01.290Z,48.17
2022-10-15T19:02:28.046Z,48.32
2022-10-15T19:04:54.669Z,48.21
2022-10-15T19:07:21.132Z,48.30
2022-10-15T19:09:47.685Z,48.05
2022-10-15T19:12:14.137Z,47.66
2022-10-15T19:14:40.607Z,47.57
2022-10-15T19:17:07.092Z,46.84
2022-10-15T19:19:33.561Z,47.74
2022-10-15T19:22:00.021Z,47.42
2022-10-15T19:24:26.555Z,46.94
2022-10-15T19:26:53.063Z,47.75
2022-10-15T19:29:19.941Z,47.68
2022-10-15T19:31:46.819Z,47.87
2022-10-15T19:34:13.390Z,47.93
2022-10-15T19:36:41.927Z,47.84
2022-10-15T19:39:12.970Z,47.99
2022-10-15T19:41:40.100Z,47.77
2022-10-15T19:44:08.132Z,48.14
2022-10-15T19:46:35.788Z,47.91
2022-10-15T19:49:02.255Z,48.33
2022-10-15T19:51:28.727Z,48.00
2022-10-15T19:53:56.366Z,48.11
2022-10-15T19:56:22.856Z,47.88
2022-10-15T19:58:54.530Z,48.35
2022-10-15T20:01:21.037Z,47.85
2022-10-15T20:03:47.527Z,48.34
2022-10-15T20:06:14.011Z,47.99
2022-10-15T20:08:40.466Z,48.15
2022-10-15T20:11:07.651Z,48.06
2022-10-15T20:13:34.283Z,48.05
2022-10-15T20:16:06.250Z,48.50
2022-10-15T20:18:32.804Z,48.56
2022-10-15T20:20:59.325Z,48.47
2022-10-15T20:23:28.971Z,48.25
2022-10-15T20:25:55.431Z,48.23
2022-10-15T20:28:21.928Z,48.17
2022-10-15T20:30:49.842Z,48.47
2022-10-15T20:33:16.350Z,48.41
2022-10-15T20:35:42.812Z,49.08
2022-10-15T20:38:09.292Z,49.42
2022-10-15T20:40:38.556Z,49.10
2022-10-15T20:43:05.004Z,49.04
2022-10-15T20:45:34.523Z,49.06
2022-10-15T20:48:01.400Z,49.19
2022-10-15T20:50:31.803Z,49.69
2022-10-15T20:52:58.277Z,49.23
2022-10-15T20:55:24.754Z,49.58
2022-10-15T20:57:51.268Z,49.01
2022-10-15T21:00:17.785Z,49.27
2022-10-15T21:02:44.253Z,49.75
2022-10-15T21:05:10.756Z,49.27
2022-10-15T21:07:37.284Z,49.24
2022-10-15T21:10:04.440Z,49.26
2022-10-15T21:12:30.923Z,49.22
2022-10-15T21:14:57.440Z,49.21
2022-10-15T21:17:24.115Z,48.98
2022-10-15T21:19:52.839Z,49.00
2022-10-15T21:22:19.679Z,49.30
2022-10-15T21:24:46.199Z,48.81
2022-10-15T21:27:12.654Z,49.42
2022-10-15T21:29:39.172Z,49.28
2022-10-15T21:32:05.734Z,48.39
2022-10-15T21:34:32.253Z,47.93
2022-10-15T21:36:58.778Z,47.84
2022-10-15T21:39:25.644Z,47.66
2022-10-15T21:41:52.123Z,47.38
2022-10-15T21:44:18.654Z,47.27
2022-10-15T21:46:45.174Z,47.49
2022-10-15T21:49:11.947Z,47.37
2022-10-15T21:51:38.446Z,47.54
2022-10-15T21:54:05.305Z,46.89
2022-10-15T21:56:31.900Z,47.47
2022-10-15T21:59:01.430Z,47.08
2022-10-15T22:01:32.488Z,47.18
2022-10-15T22:04:03.545Z,47.14
2022-10-15T22:06:30.319Z,47.57
2022-10-15T22:08:56.819Z,47.56
2022-10-15T22:11:28.181Z,47.44
2022-10-15T22:13:56.524Z,47.41
2022-10-15T22:16:23.695Z,47.14
2022-10-15T22:18:50.221Z,47.24
2022-10-15T22:21:30.639Z,47.72
2022-10-15T22:23:57.937Z,47.70
2022-10-15T22:26:26.276Z,47.66
2022-10-15T22:28:54.054Z,47.60
2022-10-15T22:31:20.559Z,48.06
2022-10-15T22:33:47.082Z,48.01
2022-10-15T22:36:18.259Z,48.06
2022-10-15T22:38:45.952Z,47.88
2022-10-15T22:41:13.383Z,47.88
2022-10-15T22:43:39.876Z,48.10
2022-10-15T22:46:06.351Z,48.42
2022-10-15T22:48:36.306Z,48.22
2022-10-15T22:51:03.790Z,48.24
2022-10-15T22:53:30.304Z,48.54
2022-10-15T22:56:03.911Z,48.14
2022-10-15T22:58:30.828Z,48.64
2022-10-15T23:01:11.526Z,48.47
2022-10-15T23:03:38.417Z,48.76
2022-10-15T23:06:05.019Z,48.27
2022-10-15T23:08:32.266Z,48.47
2022-10-15T23:11:14.843Z,48.81
2022-10-15T23:13:41.815Z,48.59
2022-10-15T23:16:18.673Z,48.46
2022-10-15T23:18:46.296Z,48.52
2022-10-15T23:21:14.701Z,48.67
2022-10-15T23:23:41.840Z,48.34
2022-10-15T23:26:10.875Z,48.68
2022-10-15T23:28:37.372Z,48.22
2022-10-15T23:31:03.864Z,48.29
2022-10-15T23:33:30.372Z,48.42
2022-10-15T23:35:58.039Z,48.44
2022-10-15T23:38:24.508Z,48.17
2022-10-15T23:40:51.920Z,48.48
2022-10-15T23:43:18.432Z,48.62
2022-10-15T23:45:44.902Z,48.47
2022-10-15T23:48:11.366Z,48.52
2022-10-15T23:50:37.894Z,48.17
2022-10-15T23:53:04.421Z,48.30
2022-10-15T23:55:31.652Z,48.03
2022-10-15T23:57:58.103Z,47.41
